sensor_id;sensor_type;location;lat;lon;timestamp;temperature;humidity
9885;DHT22;4981;50.966;4.842;2022-12-18T00:02:16;-5.60;1.00
9885;DHT22;4981;50.966;4.842;2022-12-18T00:04:43;-6.10;1.00
9885;DHT22;4981;50.966;4.842;2022-12-18T00:07:10;-5.60;1.00
9885;DHT22;4981;50.966;4.842;2022-12-18T00:09:37;-5.60;1.00
9885;DHT22;4981;50.966;4.842;2022-12-18T00:12:04;-5.70;1.00
9885;DHT22;4981;50.966;4.842;2022-12-18T00:14:32;-5.30;1.00
9885;DHT22;4981;50.966;4.842;2022-12-18T00:16:59;-5.30;1.00
9885;DHT22;4981;50.966;4.842;2022-12-18T00:19:27;-5.20;1.00
9885;DHT22;4981;50.966;4.842;2022-12-18T00:21:54;-5.10;1.00
9885;DHT22;4981;50.966;4.842;2022-12-18T00:24:23;-5.20;1.00
9885;DHT22;4981;50.966;4.842;2022-12-18T00:26:50;-5.50;1.00
9885;DHT22;4981;50.966;4.842;2022-12-18T00:29:17;-5.70;1.00
9885;DHT22;4981;50.966;4.842;2022-12-18T00:31:44;-5.70;1.00
9885;DHT22;4981;50.966;4.842;2022-12-18T00:34:12;-5.80;1.00
9885;DHT22;4981;50.966;4.842;2022-12-18T00:36:41;-5.70;1.00
9885;DHT22;4981;50.966;4.842;2022-12-18T00:39:09;-5.70;1.00
9885;DHT22;4981;50.966;4.842;2022-12-18T00:41:36;-5.60;1.00
9885;DHT22;4981;50.966;4.842;2022-12-18T00:44:21;-5.60;1.00
9885;DHT22;4981;50.966;4.842;2022-12-18T00:46:48;-5.60;1.00
9885;DHT22;4981;50.966;4.842;2022-12-18T00:49:16;-5.60;1.00
9885;DHT22;4981;50.966;4.842;2022-12-18T00:51:44;-5.70;1.00
9885;DHT22;4981;50.966;4.842;2022-12-18T00:54:12;-5.60;1.00
9885;DHT22;4981;50.966;4.842;2022-12-18T00:56:39;-5.50;1.00
9885;DHT22;4981;50.966;4.842;2022-12-18T00:59:06;-5.60;1.00
9885;DHT22;4981;50.966;4.842;2022-12-18T01:01:33;-5.50;1.00
9885;DHT22;4981;50.966;4.842;2022-12-18T01:04:01;-5.50;1.00
9885;DHT22;4981;50.966;4.842;2022-12-18T01:06:29;-5.40;1.00
9885;DHT22;4981;50.966;4.842;2022-12-18T01:08:57;-4.60;1.00
9885;DHT22;4981;50.966;4.842;2022-12-18T01:11:25;-5.10;1.00
9885;DHT22;4981;50.966;4.842;2022-12-18T01:13:52;-5.20;1.00
9885;DHT22;4981;50.966;4.842;2022-12-18T01:16:20;-5.30;1.00
9885;DHT22;4981;50.966;4.842;2022-12-18T01:18:50;-4.90;1.00
9885;DHT22;4981;50.966;4.842;2022-12-18T01:21:17;-5.30;1.00
9885;DHT22;4981;50.966;4.842;2022-12-18T01:23:44;-5.50;1.00
9885;DHT22;4981;50.966;4.842;2022-12-18T01:26:15;-5.60;1.00
9885;DHT22;4981;50.966;4.842;2022-12-18T01:28:43;-5.30;1.00
9885;DHT22;4981;50.966;4.842;2022-12-18T01:31:12;-5.10;1.00
9885;DHT22;4981;50.966;4.842;2022-12-18T01:33:40;-4.90;1.00
9885;DHT22;4981;50.966;4.842;2022-12-18T01:36:07;-5.10;1.00
9885;DHT22;4981;50.966;4.842;2022-12-18T01:38:34;-5.10;1.00
9885;DHT22;4981;50.966;4.842;2022-12-18T01:41:02;-5.10;1.00
9885;DHT22;4981;50.966;4.842;2022-12-18T01:43:44;-5.10;1.00
9885;DHT22;4981;50.966;4.842;2022-12-18T01:46:11;-5.10;1.00
9885;DHT22;4981;50.966;4.842;2022-12-18T01:48:39;-5.00;1.00
9885;DHT22;4981;50.966;4.842;2022-12-18T01:51:08;-5.00;1.00
9885;DHT22;4981;50.966;4.842;2022-12-18T01:53:36;-5.10;1.00
9885;DHT22;4981;50.966;4.842;2022-12-18T01:56:04;-5.00;1.00
9885;DHT22;4981;50.966;4.842;2022-12-18T01:58:38;-5.00;1.00
9885;DHT22;4981;50.966;4.842;2022-12-18T02:01:08;-4.90;1.00
9885;DHT22;4981;50.966;4.842;2022-12-18T02:03:35;-4.00;1.00
9885;DHT22;4981;50.966;4.842;2022-12-18T02:06:09;-4.90;1.00
9885;DHT22;4981;50.966;4.842;2022-12-18T02:08:45;-4.60;1.00
9885;DHT22;4981;50.966;4.842;2022-12-18T02:11:18;-5.10;1.00
9885;DHT22;4981;50.966;4.842;2022-12-18T02:14:05;-5.20;1.00
9885;DHT22;4981;50.966;4.842;2022-12-18T02:16:39;-4.50;1.00
9885;DHT22;4981;50.966;4.842;2022-12-18T02:19:20;-5.40;1.00
9885;DHT22;4981;50.966;4.842;2022-12-18T02:22:01;-5.90;1.00
9885;DHT22;4981;50.966;4.842;2022-12-18T02:24:35;-5.50;1.00
9885;DHT22;4981;50.966;4.842;2022-12-18T02:27:07;-5.50;1.00
9885;DHT22;4981;50.966;4.842;2022-12-18T02:29:39;-5.70;1.00
9885;DHT22;4981;50.966;4.842;2022-12-18T02:32:10;-5.60;1.00
9885;DHT22;4981;50.966;4.842;2022-12-18T02:34:40;-5.50;1.00
9885;DHT22;4981;50.966;4.842;2022-12-18T02:37:10;-5.40;1.00
9885;DHT22;4981;50.966;4.842;2022-12-18T02:39:40;-5.30;1.00
9885;DHT22;4981;50.966;4.842;2022-12-18T02:42:10;-5.20;1.00
9885;DHT22;4981;50.966;4.842;2022-12-18T02:44:42;-5.30;1.00
9885;DHT22;4981;50.966;4.842;2022-12-18T02:47:11;-5.20;1.00
9885;DHT22;4981;50.966;4.842;2022-12-18T02:49:44;-5.20;1.00
9885;DHT22;4981;50.966;4.842;2022-12-18T02:52:24;-5.20;1.00
9885;DHT22;4981;50.966;4.842;2022-12-18T02:55:00;-5.50;1.00
9885;DHT22;4981;50.966;4.842;2022-12-18T02:57:35;-5.60;1.00
9885;DHT22;4981;50.966;4.842;2022-12-18T03:00:07;-5.40;1.00
9885;DHT22;4981;50.966;4.842;2022-12-18T03:02:38;-5.60;1.00
9885;DHT22;4981;50.966;4.842;2022-12-18T03:05:11;-5.40;1.00
9885;DHT22;4981;50.966;4.842;2022-12-18T03:07:43;-5.30;1.00
9885;DHT22;4981;50.966;4.842;2022-12-18T03:10:14;-5.10;1.00
9885;DHT22;4981;50.966;4.842;2022-12-18T03:12:46;-4.90;1.00
9885;DHT22;4981;50.966;4.842;2022-12-18T03:15:17;-5.00;1.00
9885;DHT22;4981;50.966;4.842;2022-12-18T03:17:50;-5.10;1.00
9885;DHT22;4981;50.966;4.842;2022-12-18T03:20:20;-5.20;1.00
9885;DHT22;4981;50.966;4.842;2022-12-18T03:22:51;-5.10;1.00
9885;DHT22;4981;50.966;4.842;2022-12-18T03:25:19;-5.20;1.00
9885;DHT22;4981;50.966;4.842;2022-12-18T03:27:51;-5.00;1.00
9885;DHT22;4981;50.966;4.842;2022-12-18T03:30:19;-3.90;1.00
9885;DHT22;4981;50.966;4.842;2022-12-18T03:32:48;-4.80;1.00
9885;DHT22;4981;50.966;4.842;2022-12-18T03:35:21;-4.90;1.00
9885;DHT22;4981;50.966;4.842;2022-12-18T03:37:49;-5.00;1.00
9885;DHT22;4981;50.966;4.842;2022-12-18T03:40:16;-5.00;1.00
9885;DHT22;4981;50.966;4.842;2022-12-18T03:42:49;-5.00;1.00
9885;DHT22;4981;50.966;4.842;2022-12-18T03:45:23;-5.10;1.00
9885;DHT22;4981;50.966;4.842;2022-12-18T03:47:58;-5.10;1.00
9885;DHT22;4981;50.966;4.842;2022-12-18T03:50:34;-5.10;1.00
9885;DHT22;4981;50.966;4.842;2022-12-18T03:53:14;-5.00;1.00
9885;DHT22;4981;50.966;4.842;2022-12-18T03:55:42;-4.90;1.00
9885;DHT22;4981;50.966;4.842;2022-12-18T03:58:15;-4.90;1.00
9885;DHT22;4981;50.966;4.842;2022-12-18T04:00:44;-5.00;1.00
9885;DHT22;4981;50.966;4.842;2022-12-18T04:03:12;-5.00;1.00
9885;DHT22;4981;50.966;4.842;2022-12-18T04:05:40;-5.10;1.00
9885;DHT22;4981;50.966;4.842;2022-12-18T04:08:09;-5.20;1.00
9885;DHT22;4981;50.966;4.842;2022-12-18T04:10:36;-4.20;1.00
9885;DHT22;4981;50.966;4.842;2022-12-18T04:13:03;-5.30;1.00
9885;DHT22;4981;50.966;4.842;2022-12-18T04:15:34;-5.50;1.00
9885;DHT22;4981;50.966;4.842;2022-12-18T04:18:01;-5.60;1.00
9885;DHT22;4981;50.966;4.842;2022-12-18T04:20:29;-5.50;1.00
9885;DHT22;4981;50.966;4.842;2022-12-18T04:22:56;-5.30;1.00
9885;DHT22;4981;50.966;4.842;2022-12-18T04:25:23;-5.20;1.00
9885;DHT22;4981;50.966;4.842;2022-12-18T04:27:50;-4.90;1.00
9885;DHT22;4981;50.966;4.842;2022-12-18T04:30:17;-5.40;1.00
9885;DHT22;4981;50.966;4.842;2022-12-18T04:32:45;-5.40;1.00
9885;DHT22;4981;50.966;4.842;2022-12-18T04:35:12;-5.50;1.00
9885;DHT22;4981;50.966;4.842;2022-12-18T04:37:39;-5.60;1.00
9885;DHT22;4981;50.966;4.842;2022-12-18T04:40:06;-5.50;1.00
9885;DHT22;4981;50.966;4.842;2022-12-18T04:42:33;-5.60;1.00
9885;DHT22;4981;50.966;4.842;2022-12-18T04:45:00;-5.40;1.00
9885;DHT22;4981;50.966;4.842;2022-12-18T04:47:27;-5.40;1.00
9885;DHT22;4981;50.966;4.842;2022-12-18T04:49:56;-5.50;1.00
9885;DHT22;4981;50.966;4.842;2022-12-18T04:52:23;-5.90;1.00
9885;DHT22;4981;50.966;4.842;2022-12-18T04:54:50;-5.60;1.00
9885;DHT22;4981;50.966;4.842;2022-12-18T04:57:18;-5.60;1.00
9885;DHT22;4981;50.966;4.842;2022-12-18T04:59:45;-4.70;1.00
9885;DHT22;4981;50.966;4.842;2022-12-18T05:02:11;-5.10;1.00
9885;DHT22;4981;50.966;4.842;2022-12-18T05:04:39;-5.00;1.00
9885;DHT22;4981;50.966;4.842;2022-12-18T05:07:07;-5.00;1.00
9885;DHT22;4981;50.966;4.842;2022-12-18T05:09:34;-5.10;1.00
9885;DHT22;4981;50.966;4.842;2022-12-18T05:12:01;-4.50;1.00
9885;DHT22;4981;50.966;4.842;2022-12-18T05:14:28;-4.90;1.00
9885;DHT22;4981;50.966;4.842;2022-12-18T05:16:55;-5.20;1.00
9885;DHT22;4981;50.966;4.842;2022-12-18T05:19:22;-4.90;1.00
9885;DHT22;4981;50.966;4.842;2022-12-18T05:21:49;-5.10;1.00
9885;DHT22;4981;50.966;4.842;2022-12-18T05:24:17;-4.90;1.00
9885;DHT22;4981;50.966;4.842;2022-12-18T05:26:44;-4.80;1.00
9885;DHT22;4981;50.966;4.842;2022-12-18T05:29:11;-5.20;1.00
9885;DHT22;4981;50.966;4.842;2022-12-18T05:31:39;-5.20;1.00
9885;DHT22;4981;50.966;4.842;2022-12-18T05:34:06;-5.50;1.00
9885;DHT22;4981;50.966;4.842;2022-12-18T05:36:33;-5.60;1.00
9885;DHT22;4981;50.966;4.842;2022-12-18T05:39:00;-5.50;1.00
9885;DHT22;4981;50.966;4.842;2022-12-18T05:41:28;-5.70;1.00
9885;DHT22;4981;50.966;4.842;2022-12-18T05:43:55;-5.70;1.00
9885;DHT22;4981;50.966;4.842;2022-12-18T05:46:22;-5.80;1.00
9885;DHT22;4981;50.966;4.842;2022-12-18T05:48:49;-5.40;1.00
9885;DHT22;4981;50.966;4.842;2022-12-18T05:51:18;-3.90;1.00
9885;DHT22;4981;50.966;4.842;2022-12-18T05:53:45;-5.60;1.00
9885;DHT22;4981;50.966;4.842;2022-12-18T05:56:14;-5.70;1.00
9885;DHT22;4981;50.966;4.842;2022-12-18T05:58:42;-5.70;1.00
9885;DHT22;4981;50.966;4.842;2022-12-18T06:01:12;-5.60;1.00
9885;DHT22;4981;50.966;4.842;2022-12-18T06:03:39;-5.60;1.00
9885;DHT22;4981;50.966;4.842;2022-12-18T06:06:13;-5.90;1.00
9885;DHT22;4981;50.966;4.842;2022-12-18T06:08:40;-5.90;1.00
9885;DHT22;4981;50.966;4.842;2022-12-18T06:11:07;-5.80;1.00
9885;DHT22;4981;50.966;4.842;2022-12-18T06:13:34;-5.90;1.00
9885;DHT22;4981;50.966;4.842;2022-12-18T06:16:04;-6.00;1.00
9885;DHT22;4981;50.966;4.842;2022-12-18T06:18:31;-6.00;1.00
9885;DHT22;4981;50.966;4.842;2022-12-18T06:20:59;-6.10;1.00
9885;DHT22;4981;50.966;4.842;2022-12-18T06:23:26;-5.90;1.00
9885;DHT22;4981;50.966;4.842;2022-12-18T06:25:53;-5.80;1.00
9885;DHT22;4981;50.966;4.842;2022-12-18T06:28:20;-5.90;1.00
9885;DHT22;4981;50.966;4.842;2022-12-18T06:30:48;-5.80;1.00
9885;DHT22;4981;50.966;4.842;2022-12-18T06:33:17;-5.80;1.00
9885;DHT22;4981;50.966;4.842;2022-12-18T06:35:44;-5.80;1.00
9885;DHT22;4981;50.966;4.842;2022-12-18T06:38:11;-6.00;1.00
9885;DHT22;4981;50.966;4.842;2022-12-18T06:40:38;-5.80;1.00
9885;DHT22;4981;50.966;4.842;2022-12-18T06:43:05;-6.10;1.00
9885;DHT22;4981;50.966;4.842;2022-12-18T06:45:33;-6.10;1.00
9885;DHT22;4981;50.966;4.842;2022-12-18T06:48:01;-6.30;1.00
9885;DHT22;4981;50.966;4.842;2022-12-18T06:50:29;-6.30;1.00
9885;DHT22;4981;50.966;4.842;2022-12-18T06:52:56;-6.30;1.00
9885;DHT22;4981;50.966;4.842;2022-12-18T06:55:23;-6.30;1.00
9885;DHT22;4981;50.966;4.842;2022-12-18T06:57:50;-6.20;1.00
9885;DHT22;4981;50.966;4.842;2022-12-18T07:00:18;-4.40;1.00
9885;DHT22;4981;50.966;4.842;2022-12-18T07:02:45;-6.20;1.00
9885;DHT22;4981;50.966;4.842;2022-12-18T07:05:12;-6.10;1.00
9885;DHT22;4981;50.966;4.842;2022-12-18T07:07:40;-6.20;1.00
9885;DHT22;4981;50.966;4.842;2022-12-18T07:10:08;-6.20;1.00
9885;DHT22;4981;50.966;4.842;2022-12-18T07:12:35;-6.20;1.00
9885;DHT22;4981;50.966;4.842;2022-12-18T07:15:02;-6.10;1.00
9885;DHT22;4981;50.966;4.842;2022-12-18T07:17:30;-6.20;1.00
9885;DHT22;4981;50.966;4.842;2022-12-18T07:19:57;-5.80;1.00
9885;DHT22;4981;50.966;4.842;2022-12-18T07:22:25;-5.90;1.00
9885;DHT22;4981;50.966;4.842;2022-12-18T07:24:54;-5.90;1.00
9885;DHT22;4981;50.966;4.842;2022-12-18T07:27:21;-5.90;1.00
9885;DHT22;4981;50.966;4.842;2022-12-18T07:29:48;-5.90;1.00
9885;DHT22;4981;50.966;4.842;2022-12-18T07:32:15;-5.80;1.00
9885;DHT22;4981;50.966;4.842;2022-12-18T07:34:42;-5.80;1.00
9885;DHT22;4981;50.966;4.842;2022-12-18T07:37:09;-5.80;1.00
9885;DHT22;4981;50.966;4.842;2022-12-18T07:39:36;-5.80;1.00
9885;DHT22;4981;50.966;4.842;2022-12-18T07:42:05;-5.90;1.00
9885;DHT22;4981;50.966;4.842;2022-12-18T07:44:49;-5.80;1.00
9885;DHT22;4981;50.966;4.842;2022-12-18T07:47:16;-5.90;1.00
9885;DHT22;4981;50.966;4.842;2022-12-18T07:49:43;-5.90;1.00
9885;DHT22;4981;50.966;4.842;2022-12-18T07:52:10;-5.90;1.00
9885;DHT22;4981;50.966;4.842;2022-12-18T07:54:37;-5.90;1.00
9885;DHT22;4981;50.966;4.842;2022-12-18T07:57:07;-6.00;1.00
9885;DHT22;4981;50.966;4.842;2022-12-18T07:59:34;-6.00;1.00
9885;DHT22;4981;50.966;4.842;2022-12-18T08:02:01;-5.90;1.00
9885;DHT22;4981;50.966;4.842;2022-12-18T08:04:29;-5.90;1.00
9885;DHT22;4981;50.966;4.842;2022-12-18T08:06:56;-5.90;1.00
9885;DHT22;4981;50.966;4.842;2022-12-18T08:09:23;-5.70;1.00
9885;DHT22;4981;50.966;4.842;2022-12-18T08:11:49;-5.90;1.00
9885;DHT22;4981;50.966;4.842;2022-12-18T08:14:18;-5.80;1.00
9885;DHT22;4981;50.966;4.842;2022-12-18T08:16:45;-5.90;1.00
9885;DHT22;4981;50.966;4.842;2022-12-18T08:19:11;-5.70;1.00
9885;DHT22;4981;50.966;4.842;2022-12-18T08:21:39;-5.80;1.00
9885;DHT22;4981;50.966;4.842;2022-12-18T08:24:06;-5.70;1.00
9885;DHT22;4981;50.966;4.842;2022-12-18T08:26:33;-5.50;1.00
9885;DHT22;4981;50.966;4.842;2022-12-18T08:29:00;-5.60;1.00
9885;DHT22;4981;50.966;4.842;2022-12-18T08:31:30;-5.40;1.00
9885;DHT22;4981;50.966;4.842;2022-12-18T08:33:58;-5.10;1.00
9885;DHT22;4981;50.966;4.842;2022-12-18T08:36:25;-5.00;1.00
9885;DHT22;4981;50.966;4.842;2022-12-18T08:38:53;-4.80;1.00
9885;DHT22;4981;50.966;4.842;2022-12-18T08:41:21;-4.80;1.00
9885;DHT22;4981;50.966;4.842;2022-12-18T08:43:48;-4.90;1.00
9885;DHT22;4981;50.966;4.842;2022-12-18T08:46:49;-4.70;1.00
9885;DHT22;4981;50.966;4.842;2022-12-18T08:49:15;-4.70;1.00
9885;DHT22;4981;50.966;4.842;2022-12-18T08:51:42;-4.60;1.00
9885;DHT22;4981;50.966;4.842;2022-12-18T08:54:11;-4.50;1.00
9885;DHT22;4981;50.966;4.842;2022-12-18T08:56:38;-4.50;1.00
9885;DHT22;4981;50.966;4.842;2022-12-18T08:59:05;-4.40;1.00
9885;DHT22;4981;50.966;4.842;2022-12-18T09:01:32;-4.30;1.00
9885;DHT22;4981;50.966;4.842;2022-12-18T09:04:00;-4.30;1.00
9885;DHT22;4981;50.966;4.842;2022-12-18T09:06:27;-4.10;1.00
9885;DHT22;4981;50.966;4.842;2022-12-18T09:08:55;-4.10;1.00
9885;DHT22;4981;50.966;4.842;2022-12-18T09:11:23;-4.10;1.00
9885;DHT22;4981;50.966;4.842;2022-12-18T09:13:52;-4.00;1.00
9885;DHT22;4981;50.966;4.842;2022-12-18T09:16:19;-4.00;1.00
9885;DHT22;4981;50.966;4.842;2022-12-18T09:18:46;-4.00;1.00
9885;DHT22;4981;50.966;4.842;2022-12-18T09:21:17;-4.00;1.00
9885;DHT22;4981;50.966;4.842;2022-12-18T09:23:49;-3.80;1.00
9885;DHT22;4981;50.966;4.842;2022-12-18T09:26:16;-3.80;1.00
9885;DHT22;4981;50.966;4.842;2022-12-18T09:28:43;-3.80;1.00
9885;DHT22;4981;50.966;4.842;2022-12-18T09:31:14;-3.70;1.00
9885;DHT22;4981;50.966;4.842;2022-12-18T09:33:41;-3.60;1.00
9885;DHT22;4981;50.966;4.842;2022-12-18T09:36:10;-3.50;1.00
9885;DHT22;4981;50.966;4.842;2022-12-18T09:38:39;-3.60;1.00
9885;DHT22;4981;50.966;4.842;2022-12-18T09:41:19;-3.40;1.00
9885;DHT22;4981;50.966;4.842;2022-12-18T09:43:49;-3.30;1.00
9885;DHT22;4981;50.966;4.842;2022-12-18T09:46:20;-3.10;1.00
9885;DHT22;4981;50.966;4.842;2022-12-18T09:48:52;-3.10;1.00
9885;DHT22;4981;50.966;4.842;2022-12-18T09:51:24;-3.10;1.00
9885;DHT22;4981;50.966;4.842;2022-12-18T09:53:58;-3.00;1.00
9885;DHT22;4981;50.966;4.842;2022-12-18T09:56:29;-3.10;1.00
9885;DHT22;4981;50.966;4.842;2022-12-18T09:58:59;-3.00;1.00
9885;DHT22;4981;50.966;4.842;2022-12-18T10:01:28;-3.10;1.00
9885;DHT22;4981;50.966;4.842;2022-12-18T10:03:56;-2.90;1.00
9885;DHT22;4981;50.966;4.842;2022-12-18T10:06:27;-1.50;1.00
9885;DHT22;4981;50.966;4.842;2022-12-18T10:09:02;-2.80;1.00
9885;DHT22;4981;50.966;4.842;2022-12-18T10:11:39;-2.70;1.00
9885;DHT22;4981;50.966;4.842;2022-12-18T10:14:16;-2.70;1.00
9885;DHT22;4981;50.966;4.842;2022-12-18T10:16:55;-2.60;1.00
9885;DHT22;4981;50.966;4.842;2022-12-18T10:19:39;-2.60;1.00
9885;DHT22;4981;50.966;4.842;2022-12-18T10:22:29;-2.50;1.00
9885;DHT22;4981;50.966;4.842;2022-12-18T10:25:10;-2.40;1.00
9885;DHT22;4981;50.966;4.842;2022-12-18T10:27:40;-3.40;1.00
9885;DHT22;4981;50.966;4.842;2022-12-18T10:30:13;-2.40;1.00
9885;DHT22;4981;50.966;4.842;2022-12-18T10:32:40;-2.40;1.00
9885;DHT22;4981;50.966;4.842;2022-12-18T10:35:17;-2.30;1.00
9885;DHT22;4981;50.966;4.842;2022-12-18T10:38:03;-2.30;1.00
9885;DHT22;4981;50.966;4.842;2022-12-18T10:40:33;-2.20;1.00
9885;DHT22;4981;50.966;4.842;2022-12-18T10:43:11;-2.10;1.00
9885;DHT22;4981;50.966;4.842;2022-12-18T10:45:38;-2.00;1.00
9885;DHT22;4981;50.966;4.842;2022-12-18T10:48:18;-2.10;1.00
9885;DHT22;4981;50.966;4.842;2022-12-18T10:50:48;-2.10;1.00
9885;DHT22;4981;50.966;4.842;2022-12-18T10:53:20;-2.00;1.00
9885;DHT22;4981;50.966;4.842;2022-12-18T10:55:51;-2.00;1.00
9885;DHT22;4981;50.966;4.842;2022-12-18T10:58:24;-2.00;1.00
9885;DHT22;4981;50.966;4.842;2022-12-18T11:01:03;-1.90;1.00
9885;DHT22;4981;50.966;4.842;2022-12-18T11:03:33;-1.90;1.00
9885;DHT22;4981;50.966;4.842;2022-12-18T11:06:04;-1.90;1.00
9885;DHT22;4981;50.966;4.842;2022-12-18T11:08:31;-1.90;1.00
9885;DHT22;4981;50.966;4.842;2022-12-18T11:11:00;-1.80;1.00
9885;DHT22;4981;50.966;4.842;2022-12-18T11:13:29;-1.80;1.00
9885;DHT22;4981;50.966;4.842;2022-12-18T11:15:57;-1.70;1.00
9885;DHT22;4981;50.966;4.842;2022-12-18T11:18:27;-1.70;1.00
9885;DHT22;4981;50.966;4.842;2022-12-18T11:20:56;-1.70;1.00
9885;DHT22;4981;50.966;4.842;2022-12-18T11:23:24;-1.80;1.00
9885;DHT22;4981;50.966;4.842;2022-12-18T11:25:54;-1.60;1.00
9885;DHT22;4981;50.966;4.842;2022-12-18T11:28:41;-1.60;1.00
9885;DHT22;4981;50.966;4.842;2022-12-18T11:31:24;-1.60;1.00
9885;DHT22;4981;50.966;4.842;2022-12-18T11:34:02;-1.60;1.00
9885;DHT22;4981;50.966;4.842;2022-12-18T11:36:33;-1.50;1.00
9885;DHT22;4981;50.966;4.842;2022-12-18T11:39:08;-1.50;1.00
9885;DHT22;4981;50.966;4.842;2022-12-18T11:41:41;-1.40;1.00
9885;DHT22;4981;50.966;4.842;2022-12-18T11:44:35;-1.40;1.00
9885;DHT22;4981;50.966;4.842;2022-12-18T11:47:07;-1.30;1.00
9885;DHT22;4981;50.966;4.842;2022-12-18T11:49:36;-1.30;1.00
9885;DHT22;4981;50.966;4.842;2022-12-18T11:52:16;-1.20;1.00
9885;DHT22;4981;50.966;4.842;2022-12-18T11:54:44;-1.10;1.00
9885;DHT22;4981;50.966;4.842;2022-12-18T11:57:24;-1.10;1.00
9885;DHT22;4981;50.966;4.842;2022-12-18T12:00:02;-1.00;1.00
9885;DHT22;4981;50.966;4.842;2022-12-18T12:02:43;-1.00;1.00
9885;DHT22;4981;50.966;4.842;2022-12-18T12:05:28;-1.00;1.00
9885;DHT22;4981;50.966;4.842;2022-12-18T12:08:05;-0.90;1.00
9885;DHT22;4981;50.966;4.842;2022-12-18T12:10:46;-0.90;1.00
9885;DHT22;4981;50.966;4.842;2022-12-18T12:13:29;-0.90;1.00
9885;DHT22;4981;50.966;4.842;2022-12-18T12:16:12;-0.90;1.00
9885;DHT22;4981;50.966;4.842;2022-12-18T12:18:49;-0.90;1.00
9885;DHT22;4981;50.966;4.842;2022-12-18T12:21:25;-0.80;1.00
9885;DHT22;4981;50.966;4.842;2022-12-18T12:23:59;-0.70;1.00
9885;DHT22;4981;50.966;4.842;2022-12-18T12:26:33;-0.70;1.00
9885;DHT22;4981;50.966;4.842;2022-12-18T12:29:27;-0.60;1.00
9885;DHT22;4981;50.966;4.842;2022-12-18T12:32:07;-0.60;1.00
9885;DHT22;4981;50.966;4.842;2022-12-18T12:34:43;-0.60;1.00
9885;DHT22;4981;50.966;4.842;2022-12-18T12:37:22;-0.70;1.00
9885;DHT22;4981;50.966;4.842;2022-12-18T12:39:52;-0.70;1.00
9885;DHT22;4981;50.966;4.842;2022-12-18T12:42:27;-0.60;1.00
9885;DHT22;4981;50.966;4.842;2022-12-18T12:45:18;-0.60;1.00
9885;DHT22;4981;50.966;4.842;2022-12-18T12:47:49;0.20;1.00
9885;DHT22;4981;50.966;4.842;2022-12-18T12:50:19;-0.60;1.00
9885;DHT22;4981;50.966;4.842;2022-12-18T12:52:48;-0.60;1.00
9885;DHT22;4981;50.966;4.842;2022-12-18T12:55:21;-0.50;1.00
9885;DHT22;4981;50.966;4.842;2022-12-18T12:57:57;-0.40;1.00
9885;DHT22;4981;50.966;4.842;2022-12-18T13:00:27;-0.40;1.00
9885;DHT22;4981;50.966;4.842;2022-12-18T13:03:06;-0.40;1.00
9885;DHT22;4981;50.966;4.842;2022-12-18T13:05:40;-0.40;1.00
9885;DHT22;4981;50.966;4.842;2022-12-18T13:08:09;-0.40;1.00
9885;DHT22;4981;50.966;4.842;2022-12-18T13:10:37;-0.40;1.00
9885;DHT22;4981;50.966;4.842;2022-12-18T13:13:06;-0.40;1.00
9885;DHT22;4981;50.966;4.842;2022-12-18T13:15:37;-0.40;1.00
9885;DHT22;4981;50.966;4.842;2022-12-18T13:18:21;-0.30;1.00
9885;DHT22;4981;50.966;4.842;2022-12-18T13:20:51;-0.30;1.00
9885;DHT22;4981;50.966;4.842;2022-12-18T13:23:41;-0.70;1.00
9885;DHT22;4981;50.966;4.842;2022-12-18T13:26:28;-0.20;1.00
9885;DHT22;4981;50.966;4.842;2022-12-18T13:28:56;-0.30;1.00
9885;DHT22;4981;50.966;4.842;2022-12-18T13:34:36;-0.30;1.00
9885;DHT22;4981;50.966;4.842;2022-12-18T13:37:37;-0.30;1.00
9885;DHT22;4981;50.966;4.842;2022-12-18T13:43:34;-0.30;1.00
9885;DHT22;4981;50.966;4.842;2022-12-18T13:46:05;-0.20;1.00
9885;DHT22;4981;50.966;4.842;2022-12-18T13:48:35;-0.20;1.00
9885;DHT22;4981;50.966;4.842;2022-12-18T13:51:06;-0.20;1.00
9885;DHT22;4981;50.966;4.842;2022-12-18T13:53:38;-0.10;1.00
9885;DHT22;4981;50.966;4.842;2022-12-18T13:56:06;-0.10;1.00
9885;DHT22;4981;50.966;4.842;2022-12-18T13:58:33;-0.10;1.00
9885;DHT22;4981;50.966;4.842;2022-12-18T14:01:00;0.00;1.00
9885;DHT22;4981;50.966;4.842;2022-12-18T14:03:30;0.00;1.00
9885;DHT22;4981;50.966;4.842;2022-12-18T14:06:01;0.10;1.00
9885;DHT22;4981;50.966;4.842;2022-12-18T14:08:37;1.10;1.00
9885;DHT22;4981;50.966;4.842;2022-12-18T14:11:06;0.50;1.00
9885;DHT22;4981;50.966;4.842;2022-12-18T14:13:36;0.30;1.00
9885;DHT22;4981;50.966;4.842;2022-12-18T14:16:05;0.20;1.00
9885;DHT22;4981;50.966;4.842;2022-12-18T14:18:41;0.10;1.00
9885;DHT22;4981;50.966;4.842;2022-12-18T14:21:18;0.10;1.00
9885;DHT22;4981;50.966;4.842;2022-12-18T14:23:47;0.10;1.00
9885;DHT22;4981;50.966;4.842;2022-12-18T14:26:23;0.10;1.00
9885;DHT22;4981;50.966;4.842;2022-12-18T14:28:52;0.00;1.00
9885;DHT22;4981;50.966;4.842;2022-12-18T14:31:22;0.00;1.00
9885;DHT22;4981;50.966;4.842;2022-12-18T14:33:50;0.10;1.00
9885;DHT22;4981;50.966;4.842;2022-12-18T14:36:19;0.10;1.00
9885;DHT22;4981;50.966;4.842;2022-12-18T14:38:51;0.10;1.00
9885;DHT22;4981;50.966;4.842;2022-12-18T14:41:19;0.20;1.00
9885;DHT22;4981;50.966;4.842;2022-12-18T14:43:49;0.10;1.00
9885;DHT22;4981;50.966;4.842;2022-12-18T14:46:29;0.20;1.00
9885;DHT22;4981;50.966;4.842;2022-12-18T14:48:57;0.10;1.00
9885;DHT22;4981;50.966;4.842;2022-12-18T14:51:25;0.00;1.00
9885;DHT22;4981;50.966;4.842;2022-12-18T14:53:56;0.10;1.00
9885;DHT22;4981;50.966;4.842;2022-12-18T14:56:24;0.10;1.00
9885;DHT22;4981;50.966;4.842;2022-12-18T14:58:54;0.10;1.00
9885;DHT22;4981;50.966;4.842;2022-12-18T15:01:25;0.10;1.00
9885;DHT22;4981;50.966;4.842;2022-12-18T15:03:54;0.10;1.00
9885;DHT22;4981;50.966;4.842;2022-12-18T15:06:28;0.10;1.00
9885;DHT22;4981;50.966;4.842;2022-12-18T15:08:59;0.10;1.00
9885;DHT22;4981;50.966;4.842;2022-12-18T15:11:28;0.10;1.00
9885;DHT22;4981;50.966;4.842;2022-12-18T15:13:57;0.10;1.00
9885;DHT22;4981;50.966;4.842;2022-12-18T15:16:25;0.10;1.00
9885;DHT22;4981;50.966;4.842;2022-12-18T15:18:52;0.10;1.00
9885;DHT22;4981;50.966;4.842;2022-12-18T15:21:20;0.10;1.00
9885;DHT22;4981;50.966;4.842;2022-12-18T15:23:49;0.00;1.00
9885;DHT22;4981;50.966;4.842;2022-12-18T15:26:20;0.00;1.00
9885;DHT22;4981;50.966;4.842;2022-12-18T15:28:49;0.00;1.00
9885;DHT22;4981;50.966;4.842;2022-12-18T15:31:23;0.00;1.00
9885;DHT22;4981;50.966;4.842;2022-12-18T15:34:19;0.00;1.00
9885;DHT22;4981;50.966;4.842;2022-12-18T15:36:46;0.10;1.00
9885;DHT22;4981;50.966;4.842;2022-12-18T15:39:13;0.10;1.00
9885;DHT22;4981;50.966;4.842;2022-12-18T15:41:42;0.00;1.00
9885;DHT22;4981;50.966;4.842;2022-12-18T15:44:29;0.00;1.00
9885;DHT22;4981;50.966;4.842;2022-12-18T15:46:55;0.00;1.00
9885;DHT22;4981;50.966;4.842;2022-12-18T15:49:22;1.20;1.00
9885;DHT22;4981;50.966;4.842;2022-12-18T15:51:52;0.00;1.00
9885;DHT22;4981;50.966;4.842;2022-12-18T15:54:20;0.10;1.00
9885;DHT22;4981;50.966;4.842;2022-12-18T15:57:11;0.10;1.00
9885;DHT22;4981;50.966;4.842;2022-12-18T15:59:49;0.10;1.00
9885;DHT22;4981;50.966;4.842;2022-12-18T16:02:19;0.10;1.00
9885;DHT22;4981;50.966;4.842;2022-12-18T16:04:48;0.10;1.00
9885;DHT22;4981;50.966;4.842;2022-12-18T16:07:15;0.20;1.00
9885;DHT22;4981;50.966;4.842;2022-12-18T16:09:42;0.30;1.00
9885;DHT22;4981;50.966;4.842;2022-12-18T16:12:21;0.20;1.00
9885;DHT22;4981;50.966;4.842;2022-12-18T16:14:50;0.30;1.00
9885;DHT22;4981;50.966;4.842;2022-12-18T16:17:17;0.30;1.00
9885;DHT22;4981;50.966;4.842;2022-12-18T16:19:44;0.30;1.00
9885;DHT22;4981;50.966;4.842;2022-12-18T16:22:18;0.30;1.00
9885;DHT22;4981;50.966;4.842;2022-12-18T16:24:47;0.40;1.00
9885;DHT22;4981;50.966;4.842;2022-12-18T16:27:16;0.30;1.00
9885;DHT22;4981;50.966;4.842;2022-12-18T16:29:43;0.50;1.00
9885;DHT22;4981;50.966;4.842;2022-12-18T16:32:13;0.40;1.00
9885;DHT22;4981;50.966;4.842;2022-12-18T16:34:41;3.70;1.00
9885;DHT22;4981;50.966;4.842;2022-12-18T16:37:10;3.80;1.00
9885;DHT22;4981;50.966;4.842;2022-12-18T16:39:38;2.40;1.00
9885;DHT22;4981;50.966;4.842;2022-12-18T16:42:09;1.20;1.00
9885;DHT22;4981;50.966;4.842;2022-12-18T16:44:39;0.80;1.00
9885;DHT22;4981;50.966;4.842;2022-12-18T16:47:06;0.60;1.00
9885;DHT22;4981;50.966;4.842;2022-12-18T16:49:33;0.50;1.00
9885;DHT22;4981;50.966;4.842;2022-12-18T16:52:00;0.40;1.00